Time;durP1;ratioP1;P1;durP2;ratioP2;P2;SDS_P1;SDS_P2;PMS_P1;PMS_P2;Temp;Humidity;BMP_temperature;BMP_pressure;BME280_temperature;BME280_humidity;BME280_pressure;Samples;Min_cycle;Max_cycle;Signal;HPM_P1;HPM_P2
2021/03/14 00:00:42;;;;;;;4.97;0.30;;;5.90;99.90;;;;;;5054085;28;20028;-74
2021/03/14 00:03:13;;;;;;;8.55;0.20;;;6.00;99.90;;;;;;5055972;28;20105;-74
2021/03/14 00:05:40;;;;;;;9.82;1.75;;;6.00;99.90;;;;;;5053627;28;20025;-74
2021/03/14 00:08:07;;;;;;;14.95;1.00;;;5.90;99.90;;;;;;5055913;28;20471;-74
2021/03/14 00:10:33;;;;;;;5.40;0.30;;;6.00;99.90;;;;;;5055873;28;20082;-74
2021/03/14 00:12:59;;;;;;;6.75;1.13;;;6.10;99.90;;;;;;5055670;28;20028;-74
2021/03/14 00:15:24;;;;;;;6.10;0.68;;;6.10;99.90;;;;;;5055515;28;20021;-73
2021/03/14 00:17:50;;;;;;;7.38;0.40;;;6.00;99.90;;;;;;5055992;28;20422;-73
2021/03/14 00:20:17;;;;;;;10.90;1.92;;;6.10;99.90;;;;;;5056302;28;20036;-74
2021/03/14 00:22:42;;;;;;;9.13;0.60;;;6.10;99.90;;;;;;5055414;28;20021;-74
2021/03/14 00:25:09;;;;;;;6.13;0.35;;;6.10;99.90;;;;;;5055112;28;20083;-74
2021/03/14 00:27:35;;;;;;;5.68;0.08;;;6.10;99.90;;;;;;5055378;28;20025;-74
2021/03/14 00:30:00;;;;;;;5.20;0.03;;;6.10;99.90;;;;;;5093697;22;20049;-74
2021/03/14 00:32:26;;;;;;;4.28;0.20;;;6.20;99.90;;;;;;5055467;28;20530;-74
2021/03/14 00:34:52;;;;;;;2.97;0.10;;;6.20;99.90;;;;;;5054276;28;20453;-74
2021/03/14 00:37:17;;;;;;;4.63;0.20;;;6.10;99.90;;;;;;5055412;28;20472;-74
2021/03/14 00:39:43;;;;;;;11.60;0.70;;;6.20;99.90;;;;;;5054918;28;20048;-74
2021/03/14 00:42:08;;;;;;;8.88;0.93;;;6.20;99.90;;;;;;5055535;28;20522;-73
2021/03/14 00:44:34;;;;;;;13.38;0.75;;;6.30;99.90;;;;;;5054518;28;20025;-73
2021/03/14 00:47:00;;;;;;;5.30;0.25;;;6.00;99.90;;;;;;5051625;22;20385;-74
2021/03/14 00:49:25;;;;;;;8.98;0.57;;;6.00;99.90;;;;;;5052792;28;20403;-74
2021/03/14 00:51:51;;;;;;;4.40;0.10;;;6.00;99.90;;;;;;5055056;28;20051;-74
2021/03/14 00:54:18;;;;;;;7.68;0.08;;;6.00;99.90;;;;;;5054644;28;20029;-74
2021/03/14 00:56:44;;;;;;;8.27;0.22;;;6.00;99.90;;;;;;5054623;28;20029;-74
2021/03/14 00:59:09;;;;;;;8.07;0.65;;;6.10;99.90;;;;;;5054984;28;20104;-74
2021/03/14 01:01:36;;;;;;;9.77;0.40;;;6.10;99.90;;;;;;5052848;28;20040;-74
2021/03/14 01:04:02;;;;;;;5.85;0.10;;;6.00;99.90;;;;;;5048818;28;20083;-74
2021/03/14 01:06:27;;;;;;;10.20;0.10;;;6.10;99.90;;;;;;5051783;28;20021;-73
2021/03/14 01:08:53;;;;;;;8.68;0.50;;;6.10;99.90;;;;;;5054415;28;20032;-74
2021/03/14 01:11:19;;;;;;;10.88;0.52;;;6.10;99.90;;;;;;5054352;28;20021;-74
2021/03/14 01:13:45;;;;;;;14.48;1.02;;;6.10;99.90;;;;;;5050836;28;20078;-74
2021/03/14 01:16:11;;;;;;;11.48;0.28;;;6.10;99.90;;;;;;5034640;28;20026;-73
2021/03/14 01:18:37;;;;;;;10.00;0.73;;;6.10;99.90;;;;;;5034449;28;20055;-74
2021/03/14 01:21:03;;;;;;;11.48;0.80;;;6.10;99.90;;;;;;5034360;28;20097;-73
2021/03/14 01:23:28;;;;;;;8.98;0.95;;;6.10;99.90;;;;;;5033698;28;20113;-74
2021/03/14 01:25:54;;;;;;;17.55;0.45;;;6.10;99.90;;;;;;5033225;28;20083;-73
2021/03/14 01:28:19;;;;;;;4.93;0.73;;;6.10;99.90;;;;;;5033489;28;20385;-74
2021/03/14 01:30:45;;;;;;;9.90;0.52;;;6.10;99.90;;;;;;5063644;22;20020;-73
2021/03/14 01:33:11;;;;;;;13.85;0.68;;;6.10;99.90;;;;;;5014751;28;20038;-73
2021/03/14 01:35:36;;;;;;;6.90;0.32;;;6.10;99.90;;;;;;5015473;28;20032;-74
2021/03/14 01:38:02;;;;;;;6.38;0.28;;;6.10;99.90;;;;;;5034363;28;20025;-73
2021/03/14 01:40:28;;;;;;;10.55;0.43;;;6.10;99.90;;;;;;5016082;28;20388;-74
2021/03/14 01:42:54;;;;;;;3.55;0.10;;;6.00;99.90;;;;;;5016559;28;20392;-74
2021/03/14 01:45:20;;;;;;;11.88;0.45;;;6.00;99.90;;;;;;5018148;28;20026;-73
2021/03/14 01:47:49;;;;;;;6.65;0.20;;;6.00;99.90;;;;;;5024356;23;20131;-74
2021/03/14 01:50:21;;;;;;;9.15;0.60;;;6.00;99.90;;;;;;5053675;28;20102;-74
2021/03/14 01:52:48;;;;;;;7.18;0.22;;;6.00;99.90;;;;;;5052552;28;20025;-74
2021/03/14 01:55:15;;;;;;;9.93;0.30;;;6.00;99.90;;;;;;5053411;28;20555;-74
2021/03/14 01:57:41;;;;;;;16.88;0.93;;;6.00;99.90;;;;;;5053706;28;20029;-74
2021/03/14 02:00:08;;;;;;;10.15;0.70;;;6.00;99.90;;;;;;5053846;28;20029;-74
2021/03/14 02:02:35;;;;;;;8.13;0.38;;;6.00;99.90;;;;;;5053660;28;20028;-73
2021/03/14 02:05:01;;;;;;;8.23;0.32;;;6.00;99.90;;;;;;5040134;28;20031;-73
2021/03/14 02:07:26;;;;;;;8.75;0.88;;;6.00;99.90;;;;;;5032685;28;20403;-73
2021/03/14 02:09:52;;;;;;;7.45;0.20;;;6.00;99.90;;;;;;5032428;28;20116;-74
2021/03/14 02:12:21;;;;;;;7.07;0.52;;;6.00;99.90;;;;;;5033720;28;20021;-73
2021/03/14 02:14:48;;;;;;;6.97;0.20;;;6.00;99.90;;;;;;5033496;28;20033;-74
2021/03/14 02:17:18;;;;;;;9.50;0.90;;;5.90;99.90;;;;;;5032095;28;20029;-74
2021/03/14 02:19:57;;;;;;;11.27;0.77;;;5.80;99.90;;;;;;5034046;28;20018;-73
2021/03/14 02:22:24;;;;;;;8.43;0.77;;;5.80;99.90;;;;;;5032530;28;20032;-74
2021/03/14 02:24:57;;;;;;;6.55;0.10;;;5.70;99.90;;;;;;5032371;28;20060;-73
2021/03/14 02:27:23;;;;;;;7.75;0.47;;;5.70;99.90;;;;;;5032427;28;20018;-73
2021/03/14 02:29:49;;;;;;;8.10;0.32;;;5.60;99.90;;;;;;5034032;28;20032;-73
2021/03/14 02:32:18;;;;;;;12.75;0.38;;;5.60;99.90;;;;;;5032830;28;20033;-73
2021/03/14 02:34:49;;;;;;;14.30;0.98;;;5.60;99.90;;;;;;5046742;28;20040;-74
2021/03/14 02:37:15;;;;;;;9.27;0.77;;;5.50;99.90;;;;;;5053430;28;20079;-74
2021/03/14 02:39:43;;;;;;;12.93;1.02;;;5.50;99.90;;;;;;5054699;28;20499;-74
2021/03/14 02:42:11;;;;;;;9.85;0.25;;;5.50;99.90;;;;;;5055952;28;20024;-74
2021/03/14 02:44:43;;;;;;;5.30;0.20;;;5.40;99.90;;;;;;5056718;28;20025;-73
2021/03/14 02:47:09;;;;;;;13.38;0.70;;;5.50;99.90;;;;;;5057258;28;20079;-73
2021/03/14 02:49:36;;;;;;;9.43;0.20;;;5.50;99.90;;;;;;5056364;28;20440;-74
2021/03/14 02:52:04;;;;;;;10.68;0.98;;;5.50;99.90;;;;;;5057354;28;20375;-74
2021/03/14 02:54:32;;;;;;;13.40;1.13;;;5.50;99.90;;;;;;5056688;28;20026;-74
2021/03/14 02:56:58;;;;;;;13.82;0.93;;;5.50;99.90;;;;;;5056922;28;20025;-74
2021/03/14 02:59:24;;;;;;;10.90;0.15;;;5.40;99.90;;;;;;5041113;23;20054;-74
2021/03/14 03:01:51;;;;;;;9.80;0.80;;;5.50;99.90;;;;;;5035046;28;20113;-74
2021/03/14 03:04:18;;;;;;;13.05;0.47;;;5.60;99.90;;;;;;5047824;23;20110;-74
2021/03/14 03:06:45;;;;;;;7.40;0.00;;;5.60;99.90;;;;;;4999379;28;20030;-74
2021/03/14 03:09:13;;;;;;;10.90;0.60;;;5.60;99.90;;;;;;4999132;28;20381;-74
2021/03/14 03:11:43;;;;;;;9.25;0.50;;;5.60;99.90;;;;;;5017192;28;20465;-74
2021/03/14 03:14:14;;;;;;;5.75;0.10;;;5.50;99.90;;;;;;5016772;28;20049;-73
2021/03/14 03:16:41;;;;;;;14.30;0.88;;;5.50;99.90;;;;;;5016856;28;20033;-73
2021/03/14 03:19:11;;;;;;;13.02;1.00;;;5.50;99.90;;;;;;5016736;28;20022;-74
2021/03/14 03:21:37;;;;;;;5.03;0.45;;;5.50;99.90;;;;;;5016552;28;20037;-73
2021/03/14 03:24:04;;;;;;;5.53;0.30;;;5.50;99.90;;;;;;4999100;28;20022;-73
2021/03/14 03:26:30;;;;;;;7.53;0.85;;;5.50;99.90;;;;;;5016729;28;20022;-73
2021/03/14 03:28:55;;;;;;;3.50;0.00;;;5.50;99.90;;;;;;5020949;23;20493;-73
2021/03/14 03:31:21;;;;;;;9.48;0.40;;;5.50;99.90;;;;;;5016870;28;20045;-73
2021/03/14 03:33:46;;;;;;;7.53;0.63;;;5.50;99.90;;;;;;5016464;28;20053;-73
2021/03/14 03:36:12;;;;;;;12.75;1.38;;;5.50;99.90;;;;;;5016579;28;20032;-73
2021/03/14 03:38:39;;;;;;;10.50;0.10;;;5.50;99.90;;;;;;5016437;28;20495;-74
2021/03/14 03:41:04;;;;;;;6.72;0.25;;;5.50;99.90;;;;;;5014984;28;20477;-74
2021/03/14 03:43:37;;;;;;;6.60;0.20;;;5.50;99.90;;;;;;5016100;28;20033;-74
2021/03/14 03:46:08;;;;;;;9.77;0.47;;;5.50;99.90;;;;;;5016080;28;20515;-74
2021/03/14 03:48:40;;;;;;;10.52;0.98;;;5.50;99.90;;;;;;5016161;28;20025;-75
2021/03/14 03:51:07;;;;;;;9.73;0.57;;;5.60;99.90;;;;;;5015729;28;20033;-74
2021/03/14 03:53:34;;;;;;;9.02;0.40;;;5.60;99.90;;;;;;5014575;28;20473;-75
2021/03/14 03:56:01;;;;;;;7.95;1.05;;;5.60;99.90;;;;;;5016056;28;20029;-74
2021/03/14 03:58:29;;;;;;;11.18;0.10;;;5.60;99.90;;;;;;5016045;28;20041;-74
2021/03/14 04:00:55;;;;;;;5.53;0.35;;;5.60;99.90;;;;;;5016575;28;20030;-74
2021/03/14 04:03:22;;;;;;;15.98;1.13;;;5.70;99.90;;;;;;5015934;28;20472;-75
2021/03/14 04:05:54;;;;;;;2.80;0.25;;;5.70;99.90;;;;;;5016222;28;20037;-74
2021/03/14 04:08:20;;;;;;;7.47;0.28;;;5.70;99.90;;;;;;5016047;28;20029;-74
2021/03/14 04:10:46;;;;;;;7.07;1.55;;;5.70;99.90;;;;;;5015960;28;20472;-74
2021/03/14 04:13:12;;;;;;;8.98;0.30;;;5.70;99.90;;;;;;5015851;28;20101;-74
2021/03/14 04:15:39;;;;;;;6.15;0.03;;;5.80;99.90;;;;;;5031432;23;20061;-73
2021/03/14 04:18:06;;;;;;;6.72;0.25;;;5.80;99.90;;;;;;5035387;28;20033;-73
2021/03/14 04:20:39;;;;;;;10.48;0.57;;;5.80;99.90;;;;;;5035328;28;20091;-73
2021/03/14 04:23:09;;;;;;;4.40;0.22;;;5.80;99.90;;;;;;5035147;28;20033;-74
2021/03/14 04:25:36;;;;;;;10.38;0.05;;;5.70;99.90;;;;;;5035821;28;20155;-74
2021/03/14 04:28:02;;;;;;;3.75;0.47;;;5.60;99.90;;;;;;5035554;28;20022;-73
2021/03/14 04:30:30;;;;;;;10.27;0.82;;;5.70;99.90;;;;;;5018305;28;20029;-74
2021/03/14 04:32:56;;;;;;;8.35;0.20;;;5.70;99.90;;;;;;5035513;28;20037;-73
2021/03/14 04:35:24;;;;;;;2.50;0.20;;;5.70;99.90;;;;;;5018237;28;20137;-73
2021/03/14 04:37:51;;;;;;;1.85;0.10;;;5.70;99.90;;;;;;5035361;28;20056;-73
2021/03/14 04:40:17;;;;;;;5.10;0.30;;;5.60;99.90;;;;;;5035538;28;20037;-74
2021/03/14 04:42:47;;;;;;;4.10;0.52;;;5.50;99.90;;;;;;5035096;28;20041;-73
2021/03/14 04:45:13;;;;;;;6.88;0.73;;;5.40;99.90;;;;;;5035047;28;20132;-73
2021/03/14 04:47:41;;;;;;;3.65;0.10;;;5.30;99.90;;;;;;5035394;28;20366;-74
2021/03/14 04:50:08;;;;;;;3.53;0.10;;;5.30;99.90;;;;;;5035402;28;20017;-74
2021/03/14 04:52:35;;;;;;;4.88;0.03;;;5.20;99.90;;;;;;5035107;28;20087;-74
2021/03/14 04:55:02;;;;;;;5.30;0.47;;;5.20;99.90;;;;;;5017147;28;20025;-74
2021/03/14 04:57:29;;;;;;;3.33;0.30;;;5.10;99.90;;;;;;5017380;28;20494;-73
2021/03/14 04:59:56;;;;;;;5.72;0.47;;;5.00;99.90;;;;;;5034709;28;20392;-73
2021/03/14 05:02:23;;;;;;;5.20;0.50;;;5.00;99.90;;;;;;5039770;23;20042;-73
2021/03/14 05:04:50;;;;;;;6.78;0.68;;;5.10;99.90;;;;;;5014904;28;20022;-73
2021/03/14 05:07:19;;;;;;;6.78;1.17;;;5.10;99.90;;;;;;5014428;28;20052;-73
2021/03/14 05:09:45;;;;;;;6.85;0.63;;;5.20;99.90;;;;;;4997723;28;20040;-74
2021/03/14 05:12:11;;;;;;;4.28;0.73;;;5.20;99.90;;;;;;5014747;28;20030;-74
2021/03/14 05:14:38;;;;;;;7.80;0.90;;;5.30;99.90;;;;;;5015034;28;20045;-74
2021/03/14 05:17:05;;;;;;;3.03;0.30;;;5.30;99.90;;;;;;5014498;28;20018;-73
2021/03/14 05:19:32;;;;;;;3.40;0.20;;;5.20;99.90;;;;;;4997554;28;20030;-73
2021/03/14 05:21:59;;;;;;;1.73;0.17;;;5.20;99.90;;;;;;5014905;28;20022;-74
2021/03/14 05:24:26;;;;;;;3.30;0.22;;;5.20;99.90;;;;;;5014612;28;20021;-73
2021/03/14 05:26:56;;;;;;;8.93;0.10;;;5.10;99.90;;;;;;5014370;28;20512;-73
2021/03/14 05:29:24;;;;;;;7.03;1.08;;;5.10;99.90;;;;;;4996864;28;20018;-74
2021/03/14 05:31:52;;;;;;;6.00;1.00;;;5.00;99.90;;;;;;4996658;28;20018;-73
2021/03/14 05:34:18;;;;;;;4.63;0.43;;;5.00;99.90;;;;;;4997121;28;20079;-73
2021/03/14 05:36:45;;;;;;;1.05;0.00;;;5.00;99.90;;;;;;5014419;28;20727;-73
2021/03/14 05:39:11;;;;;;;3.22;0.40;;;5.00;99.90;;;;;;4996760;28;20108;-73
2021/03/14 05:41:38;;;;;;;5.22;0.17;;;5.00;99.90;;;;;;5013835;28;20077;-74
2021/03/14 05:44:04;;;;;;;2.25;0.30;;;4.90;99.90;;;;;;5014209;28;20428;-73
2021/03/14 05:46:30;;;;;;;7.10;0.52;;;4.90;99.90;;;;;;4996426;28;20190;-74
2021/03/14 05:48:56;;;;;;;7.13;0.85;;;5.00;99.90;;;;;;5014479;28;20489;-73
2021/03/14 05:51:28;;;;;;;3.38;0.30;;;5.00;99.90;;;;;;5044434;23;20420;-73
2021/03/14 05:53:57;;;;;;;5.70;0.50;;;5.00;99.90;;;;;;5034292;28;20025;-74
2021/03/14 05:56:23;;;;;;;4.90;0.10;;;5.00;99.90;;;;;;5030593;28;20028;-73
2021/03/14 05:58:50;;;;;;;5.43;0.90;;;5.00;99.90;;;;;;5013108;28;20473;-73
2021/03/14 06:01:17;;;;;;;7.72;0.30;;;5.00;99.90;;;;;;5012709;28;20029;-73
2021/03/14 06:03:44;;;;;;;7.80;0.20;;;5.10;99.90;;;;;;5013220;28;20045;-73
2021/03/14 06:06:11;;;;;;;13.52;0.85;;;5.10;99.90;;;;;;5014050;28;20014;-74
2021/03/14 06:08:38;;;;;;;12.35;0.57;;;5.10;99.90;;;;;;5014539;28;20018;-74
2021/03/14 06:11:05;;;;;;;5.93;0.30;;;5.10;99.90;;;;;;5014269;28;20080;-74
2021/03/14 06:13:31;;;;;;;6.60;0.10;;;5.20;99.90;;;;;;5014883;28;20038;-74
2021/03/14 06:15:57;;;;;;;7.13;0.10;;;5.20;99.90;;;;;;5018189;28;20037;-74
2021/03/14 06:18:22;;;;;;;4.55;0.65;;;5.30;99.90;;;;;;5035411;23;20046;-74
2021/03/14 06:20:48;;;;;;;6.93;0.43;;;5.30;99.90;;;;;;5020006;28;20038;-74
2021/03/14 06:23:18;;;;;;;5.30;0.43;;;5.30;99.90;;;;;;5038490;28;20115;-74
2021/03/14 06:25:54;;;;;;;8.50;0.85;;;5.30;99.90;;;;;;5038232;28;20022;-74
2021/03/14 06:28:36;;;;;;;13.98;1.15;;;5.30;99.90;;;;;;5020190;28;20057;-73
2021/03/14 06:31:21;;;;;;;3.65;0.10;;;5.40;99.90;;;;;;5000471;28;20025;-73
2021/03/14 06:33:47;;;;;;;3.17;0.10;;;5.40;99.90;;;;;;4981168;28;20084;-73
2021/03/14 06:36:21;;;;;;;11.30;0.90;;;5.50;99.90;;;;;;4998623;28;20030;-73
2021/03/14 06:38:49;;;;;;;10.73;0.77;;;5.50;99.90;;;;;;4998653;28;20081;-73
2021/03/14 06:43:48;;;;;;;10.02;0.40;;;5.60;99.90;;;;;;5075878;28;20052;-73
2021/03/14 06:46:19;;;;;;;5.38;0.40;;;5.60;99.90;;;;;;5076224;28;20016;-73
2021/03/14 06:48:44;;;;;;;4.05;0.25;;;5.60;99.90;;;;;;5077954;28;20025;-73
2021/03/14 06:51:10;;;;;;;6.15;0.20;;;5.70;99.90;;;;;;5076233;28;20074;-73
2021/03/14 06:53:35;;;;;;;9.52;1.00;;;5.70;99.90;;;;;;5076948;28;20056;-73
2021/03/14 06:56:05;;;;;;;4.28;0.20;;;5.80;99.90;;;;;;5076663;28;20025;-73
2021/03/14 06:58:34;;;;;;;10.50;1.17;;;5.80;99.90;;;;;;5075710;28;20395;-73
2021/03/14 07:01:16;;;;;;;4.25;0.32;;;5.90;99.90;;;;;;5076628;28;20031;-73
2021/03/14 07:03:52;;;;;;;12.57;0.63;;;6.00;99.90;;;;;;5076658;28;20032;-73
2021/03/14 07:06:23;;;;;;;11.27;1.02;;;6.00;99.90;;;;;;5075054;28;20021;-74
2021/03/14 07:09:09;;;;;;;11.93;0.80;;;6.00;99.90;;;;;;5076893;28;20020;-72
2021/03/14 07:11:41;;;;;;;6.93;0.40;;;6.00;99.90;;;;;;5075100;28;20028;-73
2021/03/14 07:14:12;;;;;;;3.97;0.43;;;6.00;99.90;;;;;;5076743;28;20032;-73
2021/03/14 07:16:57;;;;;;;7.25;0.40;;;6.00;99.90;;;;;;5076695;28;20454;-73
2021/03/14 07:19:31;;;;;;;12.48;1.35;;;6.00;99.90;;;;;;5075625;28;20017;-72
2021/03/14 07:22:07;;;;;;;12.52;0.70;;;6.00;99.90;;;;;;5076830;28;20028;-73
2021/03/14 07:24:39;;;;;;;16.63;1.08;;;6.00;99.90;;;;;;5076123;28;20104;-74
2021/03/14 07:27:11;;;;;;;14.15;1.25;;;6.00;99.90;;;;;;5074955;28;20023;-73
2021/03/14 07:29:38;;;;;;;11.23;1.15;;;6.10;99.90;;;;;;5076575;28;20021;-73
2021/03/14 07:32:06;;;;;;;4.80;0.43;;;6.20;99.90;;;;;;5076257;28;20082;-73
2021/03/14 07:34:32;;;;;;;6.45;1.33;;;6.30;99.90;;;;;;5076256;28;20029;-73
2021/03/14 07:36:58;;;;;;;15.15;2.40;;;6.30;99.90;;;;;;5074861;28;20029;-73
2021/03/14 07:39:23;;;;;;;5.85;0.55;;;6.40;99.90;;;;;;5076086;28;20056;-74
2021/03/14 07:41:49;;;;;;;7.32;1.65;;;6.40;99.90;;;;;;5075964;28;20562;-74
2021/03/14 07:44:18;;;;;;;9.90;1.35;;;6.50;99.90;;;;;;5076308;28;20027;-74
2021/03/14 07:46:45;;;;;;;4.85;1.42;;;6.50;99.90;;;;;;5074599;28;20029;-74
2021/03/14 07:49:13;;;;;;;9.88;1.55;;;6.60;99.90;;;;;;5074820;28;20043;-74
2021/03/14 07:51:41;;;;;;;8.13;1.40;;;6.60;99.90;;;;;;5074629;28;20025;-74
2021/03/14 07:54:10;;;;;;;7.47;1.00;;;6.60;99.90;;;;;;5074343;28;20079;-74
2021/03/14 07:56:38;;;;;;;9.00;0.82;;;6.70;99.90;;;;;;5074747;28;20060;-73
2021/03/14 07:59:06;;;;;;;5.45;1.15;;;7.10;99.90;;;;;;5074883;28;20024;-73
2021/03/14 08:01:32;;;;;;;8.82;1.50;;;6.70;99.90;;;;;;5075968;28;20024;-74
2021/03/14 08:03:59;;;;;;;20.20;1.45;;;6.70;99.90;;;;;;5074742;28;20074;-73
2021/03/14 08:06:43;;;;;;;10.60;1.38;;;6.70;99.90;;;;;;5074681;22;20045;-73
2021/03/14 08:09:09;;;;;;;13.70;1.20;;;7.00;99.90;;;;;;5071398;28;20075;-75
2021/03/14 08:11:34;;;;;;;9.48;1.67;;;6.70;99.90;;;;;;5070205;22;20045;-75
2021/03/14 08:14:00;;;;;;;9.52;1.27;;;6.80;99.90;;;;;;5055710;28;20423;-73
2021/03/14 08:16:27;;;;;;;9.32;0.90;;;6.90;99.90;;;;;;5054200;28;20037;-73
2021/03/14 08:18:54;;;;;;;9.32;1.48;;;7.00;99.90;;;;;;5054402;28;20098;-73
2021/03/14 08:21:19;;;;;;;6.10;1.00;;;7.00;99.90;;;;;;5050054;28;20477;-74
2021/03/14 08:23:46;;;;;;;9.10;0.85;;;7.10;99.90;;;;;;5040299;28;20017;-74
2021/03/14 08:26:28;;;;;;;6.72;0.93;;;7.10;99.90;;;;;;5053832;28;20387;-74
2021/03/14 08:29:00;;;;;;;8.35;1.60;;;7.10;99.90;;;;;;5055905;28;20038;-73
2021/03/14 08:31:53;;;;;;;14.52;1.60;;;7.10;99.90;;;;;;5056477;28;20029;-74
2021/03/14 08:34:31;;;;;;;11.38;0.90;;;7.20;99.90;;;;;;5047260;28;20510;-75
2021/03/14 08:36:58;;;;;;;8.63;1.25;;;7.20;99.90;;;;;;5033916;28;20443;-74
2021/03/14 08:39:25;;;;;;;8.90;1.63;;;7.20;99.90;;;;;;5034969;28;20491;-74
2021/03/14 08:41:53;;;;;;;9.80;1.60;;;7.30;99.90;;;;;;5036110;28;20034;-75
2021/03/14 08:44:41;;;;;;;9.77;0.88;;;7.30;99.90;;;;;;5064052;23;20045;-72
2021/03/14 08:47:07;;;;;;;9.50;1.02;;;7.40;99.90;;;;;;5095099;22;20037;-74
2021/03/14 08:49:35;;;;;;;7.72;1.23;;;7.40;99.90;;;;;;5103571;22;20100;-74
2021/03/14 08:52:01;;;;;;;5.28;1.15;;;10.10;99.90;;;;;;5074860;28;20402;-74
2021/03/14 08:54:33;;;;;;;5.15;0.75;;;10.30;99.90;;;;;;5073357;28;20020;-74
2021/03/14 08:57:02;;;;;;;7.13;1.10;;;7.70;99.90;;;;;;5075301;28;20051;-74
2021/03/14 08:59:28;;;;;;;5.10;0.82;;;7.70;99.90;;;;;;5074976;28;20494;-74
2021/03/14 09:01:56;;;;;;;5.53;0.70;;;7.80;99.90;;;;;;5075335;28;20063;-74
2021/03/14 09:04:28;;;;;;;7.47;0.45;;;7.90;99.90;;;;;;5065899;28;20025;-74
2021/03/14 09:07:02;;;;;;;2.15;0.40;;;8.00;99.90;;;;;;5053721;28;20021;-73
2021/03/14 09:09:27;;;;;;;7.18;0.93;;;8.00;99.90;;;;;;5055188;28;20056;-74
2021/03/14 09:11:58;;;;;;;4.70;0.82;;;8.10;99.90;;;;;;5053558;28;20074;-73
2021/03/14 09:14:24;;;;;;;3.22;0.43;;;8.20;99.90;;;;;;5054762;28;20075;-74
2021/03/14 09:16:51;;;;;;;10.02;0.52;;;8.20;99.90;;;;;;5055062;28;20475;-73
2021/03/14 09:19:31;;;;;;;10.95;0.98;;;8.20;99.90;;;;;;5055418;28;20021;-73
2021/03/14 09:22:04;;;;;;;6.57;0.95;;;8.20;99.90;;;;;;5065111;28;20055;-73
2021/03/14 09:24:35;;;;;;;4.28;0.20;;;8.20;99.90;;;;;;5064804;28;20029;-74
2021/03/14 09:27:07;;;;;;;6.93;0.60;;;8.10;99.90;;;;;;5054088;28;20036;-74
2021/03/14 09:29:37;;;;;;;5.55;0.20;;;8.10;99.90;;;;;;5054143;28;20361;-73
2021/03/14 09:32:12;;;;;;;5.50;1.63;;;8.10;99.90;;;;;;5054292;28;20029;-74
2021/03/14 09:34:38;;;;;;;5.93;0.05;;;8.20;99.90;;;;;;5064742;28;20047;-74
2021/03/14 09:37:03;;;;;;;16.05;1.20;;;8.40;99.90;;;;;;5074275;28;20025;-74
2021/03/14 09:39:29;;;;;;;10.43;0.40;;;8.50;99.90;;;;;;5074259;28;20025;-74
2021/03/14 09:41:55;;;;;;;6.97;0.90;;;8.50;99.90;;;;;;5072802;28;20013;-74
2021/03/14 09:44:20;;;;;;;7.07;0.00;;;8.50;99.90;;;;;;5065909;28;20025;-74
2021/03/14 09:47:02;;;;;;;1.00;0.00;;;8.30;99.90;;;;;;5054065;28;20025;-74
2021/03/14 09:49:29;;;;;;;0.80;0.00;;;7.90;99.90;;;;;;5053589;28;20032;-73
2021/03/14 09:51:56;;;;;;;2.83;0.00;;;7.60;99.90;;;;;;5052456;28;20021;-74
2021/03/14 09:54:24;;;;;;;2.72;0.00;;;7.60;99.90;;;;;;5053453;28;20025;-75
2021/03/14 09:56:54;;;;;;;2.67;0.43;;;7.60;99.90;;;;;;5053953;28;20036;-75
2021/03/14 09:59:24;;;;;;;1.33;0.10;;;7.70;99.90;;;;;;5053624;28;20032;-75
2021/03/14 10:01:50;;;;;;;4.47;0.35;;;7.70;99.90;;;;;;5053491;28;20017;-74
2021/03/14 10:04:16;;;;;;;4.78;0.20;;;7.80;99.90;;;;;;5059714;28;20096;-74
2021/03/14 10:06:43;;;;;;;3.30;0.00;;;7.90;99.90;;;;;;5073537;28;20035;-76
2021/03/14 10:09:28;;;;;;;3.58;0.20;;;7.90;99.90;;;;;;5071975;28;20028;-74
2021/03/14 10:11:54;;;;;;;4.75;0.20;;;7.90;99.90;;;;;;5072111;28;20031;-75
2021/03/14 10:14:21;;;;;;;7.55;0.30;;;9.70;99.90;;;;;;5065888;28;20505;-74
2021/03/14 10:16:50;;;;;;;5.30;0.85;;;8.20;99.90;;;;;;5053837;28;20029;-74
2021/03/14 10:19:16;;;;;;;8.38;0.63;;;8.30;99.90;;;;;;5052835;28;20036;-74
2021/03/14 10:21:46;;;;;;;3.83;0.40;;;8.40;99.90;;;;;;5054036;28;20129;-74
2021/03/14 10:24:32;;;;;;;8.35;0.20;;;8.60;99.90;;;;;;5060945;28;20013;-74
2021/03/14 10:27:03;;;;;;;9.43;0.98;;;8.70;99.90;;;;;;5072406;28;20028;-73
2021/03/14 10:29:33;;;;;;;2.53;0.00;;;8.90;99.90;;;;;;5073892;28;20038;-73
2021/03/14 10:32:00;;;;;;;8.45;1.35;;;8.90;99.90;;;;;;5072428;28;20053;-73
2021/03/14 10:34:26;;;;;;;5.22;0.85;;;8.90;99.90;;;;;;5064551;28;20024;-75
2021/03/14 10:36:56;;;;;;;11.15;0.80;;;9.00;99.90;;;;;;5053508;28;20036;-73
2021/03/14 10:39:29;;;;;;;3.58;0.20;;;9.00;99.90;;;;;;5053775;28;20032;-74
2021/03/14 10:41:56;;;;;;;6.43;0.28;;;8.90;99.90;;;;;;5054034;28;20025;-74
2021/03/14 10:44:24;;;;;;;6.28;0.57;;;8.90;99.90;;;;;;5053311;28;20025;-74
2021/03/14 10:46:51;;;;;;;3.83;0.10;;;9.00;99.90;;;;;;5069721;22;20048;-74
2021/03/14 10:49:23;;;;;;;2.22;0.10;;;9.00;99.90;;;;;;5053198;28;20192;-74
2021/03/14 10:51:52;;;;;;;5.80;0.38;;;9.10;99.90;;;;;;5053575;28;20032;-73
2021/03/14 10:54:18;;;;;;;4.20;0.10;;;9.10;99.90;;;;;;5054387;28;20024;-74
2021/03/14 10:56:46;;;;;;;9.93;1.25;;;9.10;99.90;;;;;;5054029;28;20610;-74
2021/03/14 10:59:32;;;;;;;3.30;0.00;;;9.10;99.90;;;;;;5073287;23;20076;-75
2021/03/14 11:02:20;;;;;;;4.82;0.20;;;9.00;99.90;;;;;;5077660;28;20115;-74
2021/03/14 11:05:00;;;;;;;2.85;0.22;;;9.00;99.90;;;;;;5076617;28;20021;-74
2021/03/14 11:07:31;;;;;;;2.95;0.43;;;9.00;99.90;;;;;;5076343;28;20081;-74
2021/03/14 11:10:15;;;;;;;8.60;0.65;;;9.00;99.90;;;;;;5076289;28;20017;-74
2021/03/14 11:12:43;;;;;;;11.95;1.10;;;9.00;99.90;;;;;;5076572;28;20070;-75
2021/03/14 11:15:26;;;;;;;2.97;0.57;;;8.90;99.90;;;;;;5076080;28;20032;-74
2021/03/14 11:17:52;;;;;;;1.92;0.00;;;8.90;99.90;;;;;;5075385;28;20070;-75
2021/03/14 11:20:20;;;;;;;6.10;0.25;;;9.00;99.90;;;;;;5059578;28;20080;-74
2021/03/14 11:22:51;;;;;;;7.45;0.22;;;9.00;99.90;;;;;;5070695;22;20063;-73
2021/03/14 11:25:17;;;;;;;15.40;0.30;;;9.00;99.90;;;;;;5055230;28;20025;-74
2021/03/14 11:27:47;;;;;;;7.53;0.35;;;10.20;99.90;;;;;;5056267;28;20025;-73
2021/03/14 11:30:15;;;;;;;5.05;0.30;;;8.90;99.90;;;;;;5078902;22;20407;-75
2021/03/14 11:32:41;;;;;;;11.23;1.48;;;8.70;99.90;;;;;;5057061;28;20029;-77
2021/03/14 11:35:08;;;;;;;4.15;0.20;;;8.60;99.90;;;;;;5056848;28;20428;-78
2021/03/14 11:37:35;;;;;;;6.35;0.85;;;8.50;99.90;;;;;;5056889;28;20024;-76
2021/03/14 11:40:02;;;;;;;5.20;0.75;;;8.40;99.90;;;;;;5057054;28;20028;-78
2021/03/14 11:42:28;;;;;;;6.05;0.55;;;8.40;99.90;;;;;;5055425;28;20051;-76
2021/03/14 11:44:55;;;;;;;4.00;0.10;;;8.40;99.90;;;;;;5056992;28;20496;-76
2021/03/14 11:47:22;;;;;;;2.00;0.25;;;8.40;99.90;;;;;;5056431;28;20017;-76
2021/03/14 11:49:48;;;;;;;4.95;0.40;;;8.50;99.90;;;;;;5053890;28;20492;-78
2021/03/14 11:52:13;;;;;;;9.40;0.75;;;8.80;99.90;;;;;;5055331;28;20027;-76
2021/03/14 11:54:39;;;;;;;9.40;0.63;;;8.80;99.90;;;;;;5047181;28;20037;-75
2021/03/14 11:57:05;;;;;;;8.90;1.08;;;9.10;99.90;;;;;;5036329;28;20048;-76
2021/03/14 11:59:33;;;;;;;3.33;0.15;;;9.20;99.90;;;;;;5037323;28;20021;-77
2021/03/14 12:01:59;;;;;;;3.42;0.50;;;9.20;99.90;;;;;;5034521;28;20479;-75
2021/03/14 12:04:24;;;;;;;1.75;0.47;;;9.20;99.90;;;;;;5034402;28;20021;-77
2021/03/14 12:06:50;;;;;;;4.22;1.05;;;9.30;98.80;;;;;;5035426;28;20032;-74
2021/03/14 12:09:15;;;;;;;3.20;0.13;;;9.20;99.00;;;;;;5041733;28;20021;-76
2021/03/14 12:11:42;;;;;;;3.58;0.00;;;9.10;99.50;;;;;;5054638;28;20013;-75
2021/03/14 12:14:08;;;;;;;6.43;0.47;;;8.90;99.90;;;;;;5054329;28;20032;-75
2021/03/14 12:16:37;;;;;;;7.72;0.20;;;8.90;99.90;;;;;;5054282;28;20510;-74
2021/03/14 12:19:03;;;;;;;8.65;0.50;;;8.90;99.90;;;;;;5051381;28;20025;-75
2021/03/14 12:21:28;;;;;;;5.85;0.38;;;8.80;99.90;;;;;;5035557;28;20025;-75
2021/03/14 12:23:54;;;;;;;7.97;0.38;;;8.80;99.90;;;;;;5034569;28;20029;-75
2021/03/14 12:26:20;;;;;;;6.85;0.50;;;8.90;99.90;;;;;;5035522;28;20036;-75
2021/03/14 12:28:46;;;;;;;7.78;1.30;;;9.10;99.90;;;;;;5039274;28;20021;-76
2021/03/14 12:31:11;;;;;;;11.82;1.10;;;9.40;99.90;;;;;;5055078;28;20028;-75
2021/03/14 12:33:37;;;;;;;8.35;0.45;;;9.60;99.90;;;;;;5051102;28;20033;-75
2021/03/14 12:36:04;;;;;;;9.70;0.70;;;9.80;99.70;;;;;;5033604;28;20025;-75
2021/03/14 12:38:32;;;;;;;7.18;0.25;;;9.90;99.90;;;;;;5034746;28;20068;-75
2021/03/14 12:40:58;;;;;;;5.57;0.55;;;10.00;97.70;;;;;;5015402;28;20033;-76
2021/03/14 12:43:26;;;;;;;3.63;0.20;;;9.70;93.80;;;;;;5017098;28;20097;-76
2021/03/14 12:45:52;;;;;;;7.63;0.52;;;9.50;93.50;;;;;;5015273;28;20173;-74
2021/03/14 12:48:18;;;;;;;7.50;0.30;;;9.30;95.50;;;;;;5015356;28;20037;-77
2021/03/14 12:50:45;;;;;;;3.97;0.30;;;9.20;96.20;;;;;;5054838;28;20029;-76
2021/03/14 12:53:11;;;;;;;6.72;0.22;;;9.10;97.00;;;;;;5049736;28;20076;-76
2021/03/14 12:55:36;;;;;;;5.85;0.35;;;9.10;97.50;;;;;;5035987;28;20026;-74
2021/03/14 12:58:03;;;;;;;8.07;0.30;;;9.10;98.80;;;;;;5033527;28;20053;-76
2021/03/14 13:00:29;;;;;;;2.30;0.50;;;9.30;97.50;;;;;;5035090;28;20029;-78
2021/03/14 13:02:55;;;;;;;3.38;0.20;;;9.50;98.40;;;;;;5034851;28;20429;-75